Dades meteomassalio
 
Diari Summary for Gener 18, 2019 Units:  Both    English   Metric
« Previous Day
Next Day »
Diari Semanal Mensual Anual Personalitzat
  Actual: Maxima: Minima: Mijana:
Temperatura: 7.8 °F /  -13.4 °C TemperatureC °F /  -17.8 °C -1.7 °F /  -18.7 °C 1.2 °F /  -17.1 °C
Rosada: 2.2 °F /  -16.6 °C DewpointC °F /  -17.8 °C -5.0 °F /  -20.6 °C -2 °F /  -18.9 °C
Humitat: 68 % Humidity % 66 % 79 %
Velocitat del vent: 18.5 mph /  29.8 km/h WindSpeedKMH mph /  0 km/h - 13.3 mph /  21.4 km/h
Racha vent: 14.2 mph /  22.9 km/h WindSpeedGustKMH mph /  0 km/h - -
Vent:NW - - WNW
Pressio: 1022.4 in /  34618.5 hPa PressurehPa in /  0 hPa 1021.8 in /  34598.1 hPa -
Pluja: 0.0 in /  0 mm      
Historical Graphs
 
 
Tabular Data for Gener 18, 2019
Time Temperature Dew Point Pressure Wind Wind Speed Wind Gust Humidity Rainfall Rate (Hourly) solar Conditions
TemperatureC °F /  -17.8 °C DewpointC °F /  -17.8 °C PressurehPa in /  0 hPa Calm     Humidity % HourlyPrecipMM in /  0 mm SolarRadiationWatts/m^2 W/m2 Conditions
00:04 2.8 °F /  -16.2 °C -0.5 °F /  -18.1 °C 1023.3 in /  34648.9 hPa West 13.0 mph /  20.9 km/h 8.2 mph /  13.2 km/h 79 % 0.0 in /  0 mm 0.00 W/m2 RA
00:09 2.2 °F /  -16.6 °C -0.9 °F /  -18.3 °C 1023.3 in /  34648.9 hPa West 18.5 mph /  29.8 km/h 12.1 mph /  19.5 km/h 80 % 0.0 in /  0 mm 0.00 W/m2 CLR
00:14 2.2 °F /  -16.6 °C -0.7 °F /  -18.2 °C 1023.3 in /  34648.9 hPa WNW 14.8 mph /  23.8 km/h 8.4 mph /  13.5 km/h 81 % 0.0 in /  0 mm 0.00 W/m2 CLR
00:19 2.2 °F /  -16.6 °C -0.7 °F /  -18.2 °C 1023.3 in /  34648.9 hPa West 14.8 mph /  23.8 km/h 10.6 mph /  17.1 km/h 81 % 0.0 in /  0 mm 0.00 W/m2 CLR
00:24 1.7 °F /  -16.8 °C -1.1 °F /  -18.4 °C 1023.2 in /  34645.6 hPa WNW 14.8 mph /  23.8 km/h 11.1 mph /  17.9 km/h 82 % 0.0 in /  0 mm 0.00 W/m2 CLR
00:29 1.7 °F /  -16.8 °C -1.1 °F /  -18.4 °C 1023.3 in /  34648.9 hPa West 13.0 mph /  20.9 km/h 10.3 mph /  16.6 km/h 82 % 0.0 in /  0 mm 0.00 W/m2 CLR
00:34 1.7 °F /  -16.8 °C -1.1 °F /  -18.4 °C 1023.2 in /  34645.6 hPa West 14.8 mph /  23.8 km/h 11.3 mph /  18.2 km/h 82 % 0.0 in /  0 mm 0.00 W/m2 CLR
00:39 1.7 °F /  -16.8 °C -1.1 °F /  -18.4 °C 1023.2 in /  34645.6 hPa WNW 14.8 mph /  23.8 km/h 11.1 mph /  17.9 km/h 82 % 0.0 in /  0 mm 0.00 W/m2 CLR
00:44 1.7 °F /  -16.8 °C -1.1 °F /  -18.4 °C 1023.1 in /  34642.2 hPa WNW 13.0 mph /  20.9 km/h 11.7 mph /  18.8 km/h 82 % 0.0 in /  0 mm 0.00 W/m2 CLR
00:49 1.7 °F /  -16.8 °C -1.1 °F /  -18.4 °C 1023.1 in /  34642.2 hPa WNW 14.8 mph /  23.8 km/h 10.8 mph /  17.4 km/h 82 % 0.0 in /  0 mm 0.00 W/m2 CLR
00:54 1.7 °F /  -16.8 °C -1.1 °F /  -18.4 °C 1023.0 in /  34638.8 hPa WNW 14.8 mph /  23.8 km/h 11.7 mph /  18.8 km/h 82 % 0.0 in /  0 mm 0.00 W/m2 CLR
00:59 1.7 °F /  -16.8 °C -0.9 °F /  -18.3 °C 1023.0 in /  34638.8 hPa WNW 16.7 mph /  26.9 km/h 13.4 mph /  21.6 km/h 83 % 0.0 in /  0 mm 0.00 W/m2 CLR
01:04 1.1 °F /  -17.2 °C -1.4 °F /  -18.6 °C 1023.0 in /  34638.8 hPa WNW 14.8 mph /  23.8 km/h 11.9 mph /  19.2 km/h 83 % 0.0 in /  0 mm 0.00 W/m2 CLR
01:09 1.1 °F /  -17.2 °C -1.4 °F /  -18.6 °C 1022.9 in /  34635.4 hPa WNW 18.5 mph /  29.8 km/h 11.6 mph /  18.7 km/h 83 % 0.0 in /  0 mm 0.00 W/m2 CLR
01:14 1.1 °F /  -17.2 °C -1.4 °F /  -18.6 °C 1022.9 in /  34635.4 hPa West 18.5 mph /  29.8 km/h 11.7 mph /  18.8 km/h 83 % 0.0 in /  0 mm 0.00 W/m2 CLR
01:19 1.1 °F /  -17.2 °C -1.4 °F /  -18.6 °C 1022.8 in /  34632 hPa West 18.5 mph /  29.8 km/h 11.1 mph /  17.9 km/h 83 % 0.0 in /  0 mm 0.00 W/m2 CLR
01:24 1.7 °F /  -16.8 °C -0.7 °F /  -18.2 °C 1022.8 in /  34632 hPa West 18.5 mph /  29.8 km/h 12.9 mph /  20.8 km/h 84 % 0.0 in /  0 mm 0.00 W/m2 CLR
01:29 1.7 °F /  -16.8 °C -0.7 °F /  -18.2 °C 1022.8 in /  34632 hPa West 16.7 mph /  26.9 km/h 9.5 mph /  15.3 km/h 84 % 0.0 in /  0 mm 0.00 W/m2 CLR
01:34 1.7 °F /  -16.8 °C -0.7 °F /  -18.2 °C 1022.7 in /  34628.6 hPa West 14.8 mph /  23.8 km/h 10.1 mph /  16.3 km/h 84 % 0.0 in /  0 mm 0.00 W/m2 CLR
01:39 1.7 °F /  -16.8 °C -0.7 °F /  -18.2 °C 1022.7 in /  34628.6 hPa West 11.1 mph /  17.9 km/h 6.0 mph /  9.7 km/h 84 % 0.0 in /  0 mm 0.00 W/m2 CLR
01:44 1.7 °F /  -16.8 °C -0.7 °F /  -18.2 °C 1022.8 in /  34632 hPa WNW 13.0 mph /  20.9 km/h 12.6 mph /  20.3 km/h 84 % 0.0 in /  0 mm 0.00 W/m2 CLR
01:49 1.1 °F /  -17.2 °C -1.3 °F /  -18.5 °C 1022.8 in /  34632 hPa West 9.7 mph /  15.6 km/h 9.0 mph /  14.5 km/h 84 % 0.0 in /  0 mm 0.00 W/m2 CLR
01:54 1.1 °F /  -17.2 °C -1.1 °F /  -18.4 °C 1022.8 in /  34632 hPa West 13.0 mph /  20.9 km/h 5.5 mph /  8.9 km/h 85 % 0.0 in /  0 mm 0.00 W/m2 CLR
01:59 0.6 °F /  -17.4 °C -1.7 °F /  -18.7 °C 1022.7 in /  34628.6 hPa West 7.4 mph /  11.9 km/h 4.7 mph /  7.6 km/h 85 % 0.0 in /  0 mm 0.00 W/m2 CLR
02:04 0.6 °F /  -17.4 °C -1.7 °F /  -18.7 °C 1022.7 in /  34628.6 hPa West 6.4 mph /  10.3 km/h 4.3 mph /  6.9 km/h 85 % 0.0 in /  0 mm 0.00 W/m2 CLR
02:09 0.0 °F /  -17.8 °C -2.2 °F /  -19 °C 1022.8 in /  34632 hPa West 5.6 mph /  9 km/h 5.8 mph /  9.3 km/h 85 % 0.0 in /  0 mm 0.00 W/m2 CLR
02:14 0.0 °F /  -17.8 °C -2.2 °F /  -19 °C 1022.8 in /  34632 hPa WNW 5.6 mph /  9 km/h 4.3 mph /  6.9 km/h 85 % 0.0 in /  0 mm 0.00 W/m2 CLR
02:19 -0.6 °F /  -18.1 °C -2.6 °F /  -19.2 °C 1022.8 in /  34632 hPa West 5.6 mph /  9 km/h 5.5 mph /  8.9 km/h 86 % 0.0 in /  0 mm 0.00 W/m2 CLR
02:24 -0.6 °F /  -18.1 °C -2.8 °F /  -19.3 °C 1022.8 in /  34632 hPa West 3.7 mph /  6 km/h   85 % 0.0 in /  0 mm 0.00 W/m2 CLR
02:27 -0.6 °F /  -18.1 °C -2.8 °F /  -19.3 °C 1022.8 in /  34632 hPa West 6.4 mph /  10.3 km/h 2.4 mph /  3.9 km/h 85 % 0.0 in /  0 mm 0.00 W/m2 CLR
02:34 -0.6 °F /  -18.1 °C -2.9 °F /  -19.4 °C 1022.8 in /  34632 hPa Calm     84 % 0.0 in /  0 mm 0.00 W/m2 CLR
02:39 -0.6 °F /  -18.1 °C -2.8 °F /  -19.3 °C 1022.9 in /  34635.4 hPa WNW 5.6 mph /  9 km/h 1.6 mph /  2.6 km/h 85 % 0.0 in /  0 mm 0.00 W/m2 CLR
02:44 -1.1 °F /  -18.4 °C -3.3 °F /  -19.6 °C 1022.9 in /  34635.4 hPa Calm     85 % 0.0 in /  0 mm 0.00 W/m2 CLR
02:49 -1.1 °F /  -18.4 °C -3.3 °F /  -19.6 °C 1022.8 in /  34632 hPa Calm     85 % 0.0 in /  0 mm 0.00 W/m2 CLR
02:54 -1.1 °F /  -18.4 °C -3.2 °F /  -19.6 °C 1022.7 in /  34628.6 hPa Calm     86 % 0.0 in /  0 mm 0.00 W/m2 CLR
02:59 -0.6 °F /  -18.1 °C -2.6 °F /  -19.2 °C 1022.7 in /  34628.6 hPa Calm     86 % 0.0 in /  0 mm 0.00 W/m2 CLR
03:04 -0.6 °F /  -18.1 °C -2.6 °F /  -19.2 °C 1022.7 in /  34628.6 hPa Calm     86 % 0.0 in /  0 mm 0.00 W/m2 CLR
03:09 -1.1 °F /  -18.4 °C -3.2 °F /  -19.6 °C 1022.7 in /  34628.6 hPa WSW 1.9 mph /  3.1 km/h   86 % 0.0 in /  0 mm 0.00 W/m2 CLR
03:14 -1.1 °F /  -18.4 °C -3.2 °F /  -19.6 °C 1022.8 in /  34632 hPa WNW 6.4 mph /  10.3 km/h 4.7 mph /  7.6 km/h 86 % 0.0 in /  0 mm 0.00 W/m2 CLR
03:18 -1.1 °F /  -18.4 °C -3.2 °F /  -19.6 °C 1022.8 in /  34632 hPa WNW 13.0 mph /  20.9 km/h 8.5 mph /  13.7 km/h 86 % 0.0 in /  0 mm 0.00 W/m2 CLR
03:24 -1.1 °F /  -18.4 °C -3.3 °F /  -19.6 °C 1022.7 in /  34628.6 hPa WNW 11.1 mph /  17.9 km/h 7.6 mph /  12.2 km/h 85 % 0.0 in /  0 mm 0.00 W/m2 CLR
03:29 -1.1 °F /  -18.4 °C -3.4 °F /  -19.7 °C 1022.7 in /  34628.6 hPa WNW 11.1 mph /  17.9 km/h 3.4 mph /  5.5 km/h 84 % 0.0 in /  0 mm 0.00 W/m2 CLR
03:34 -1.1 °F /  -18.4 °C -3.6 °F /  -19.8 °C 1022.7 in /  34628.6 hPa West 9.3 mph /  15 km/h 3.4 mph /  5.5 km/h 83 % 0.0 in /  0 mm 0.00 W/m2 CLR
03:39 -1.1 °F /  -18.4 °C -3.6 °F /  -19.8 °C 1022.7 in /  34628.6 hPa WNW 14.8 mph /  23.8 km/h 6.1 mph /  9.8 km/h 83 % 0.0 in /  0 mm 0.00 W/m2 CLR
03:44 -1.1 °F /  -18.4 °C -3.8 °F /  -19.9 °C 1022.6 in /  34625.2 hPa West 5.6 mph /  9 km/h 0.6 mph /  1 km/h 82 % 0.0 in /  0 mm 0.00 W/m2 CLR
03:49 -1.7 °F /  -18.7 °C -4.3 °F /  -20.2 °C 1022.6 in /  34625.2 hPa West 13.0 mph /  20.9 km/h 6.9 mph /  11.1 km/h 82 % 0.0 in /  0 mm 0.00 W/m2 CLR
03:54 -1.7 °F /  -18.7 °C -4.5 °F /  -20.3 °C 1022.6 in /  34625.2 hPa WNW 16.7 mph /  26.9 km/h 11.6 mph /  18.7 km/h 81 % 0.0 in /  0 mm 0.00 W/m2 CLR
03:58 -1.7 °F /  -18.7 °C -4.5 °F /  -20.3 °C 1022.6 in /  34625.2 hPa NW 16.7 mph /  26.9 km/h 15.6 mph /  25.1 km/h 81 % 0.0 in /  0 mm 0.00 W/m2 CLR
04:04 -1.7 °F /  -18.7 °C -4.7 °F /  -20.4 °C 1022.5 in /  34621.9 hPa WNW 11.1 mph /  17.9 km/h 8.2 mph /  13.2 km/h 80 % 0.0 in /  0 mm 0.00 W/m2 CLR
04:09 -1.7 °F /  -18.7 °C -4.8 °F /  -20.4 °C 1022.5 in /  34621.9 hPa West 9.3 mph /  15 km/h 6.4 mph /  10.3 km/h 79 % 0.0 in /  0 mm 0.00 W/m2 CLR
04:14 -1.7 °F /  -18.7 °C -4.7 °F /  -20.4 °C 1022.5 in /  34621.9 hPa NW 13.0 mph /  20.9 km/h 8.0 mph /  12.9 km/h 80 % 0.0 in /  0 mm 0.00 W/m2 CLR
04:19 -1.7 °F /  -18.7 °C -4.5 °F /  -20.3 °C 1022.5 in /  34621.9 hPa WNW 11.3 mph /  18.2 km/h 7.1 mph /  11.4 km/h 81 % 0.0 in /  0 mm 0.00 W/m2 CLR
04:24 -1.7 °F /  -18.7 °C -4.7 °F /  -20.4 °C 1022.5 in /  34621.9 hPa WNW 16.7 mph /  26.9 km/h 11.6 mph /  18.7 km/h 80 % 0.0 in /  0 mm 0.00 W/m2 CLR
04:29 -1.7 °F /  -18.7 °C -4.7 °F /  -20.4 °C 1022.4 in /  34618.5 hPa WNW 18.5 mph /  29.8 km/h 12.4 mph /  20 km/h 80 % 0.0 in /  0 mm 0.00 W/m2 CLR
04:34 -1.7 °F /  -18.7 °C -4.8 °F /  -20.4 °C 1022.4 in /  34618.5 hPa West 12.9 mph /  20.8 km/h 6.3 mph /  10.1 km/h 79 % 0.0 in /  0 mm 0.00 W/m2 CLR
04:39 -1.1 °F /  -18.4 °C -4.3 °F /  -20.2 °C 1022.4 in /  34618.5 hPa West 14.8 mph /  23.8 km/h 5.8 mph /  9.3 km/h 79 % 0.0 in /  0 mm 0.00 W/m2 CLR
04:44 -1.1 °F /  -18.4 °C -4.3 °F /  -20.2 °C 1022.5 in /  34621.9 hPa WSW 16.7 mph /  26.9 km/h 8.2 mph /  13.2 km/h 79 % 0.0 in /  0 mm 0.00 W/m2 CLR
04:49 -1.7 °F /  -18.7 °C -4.8 °F /  -20.4 °C 1022.4 in /  34618.5 hPa WSW 5.6 mph /  9 km/h 1.0 mph /  1.6 km/h 79 % 0.0 in /  0 mm 0.00 W/m2 CLR
04:54 -1.7 °F /  -18.7 °C -4.7 °F /  -20.4 °C 1022.5 in /  34621.9 hPa WSW 3.2 mph /  5.1 km/h 2.1 mph /  3.4 km/h 80 % 0.0 in /  0 mm 0.00 W/m2 CLR
04:59 -1.7 °F /  -18.7 °C -4.5 °F /  -20.3 °C 1022.4 in /  34618.5 hPa WSW 5.6 mph /  9 km/h 1.1 mph /  1.8 km/h 81 % 0.0 in /  0 mm 0.00 W/m2 CLR
05:04 -1.7 °F /  -18.7 °C -4.3 °F /  -20.2 °C 1022.4 in /  34618.5 hPa Calm     82 % 0.0 in /  0 mm 0.00 W/m2 CLR
05:09 -1.7 °F /  -18.7 °C -4.2 °F /  -20.1 °C 1022.3 in /  34615.1 hPa WSW 1.6 mph /  2.6 km/h   83 % 0.0 in /  0 mm 0.00 W/m2 CLR
05:14 -1.7 °F /  -18.7 °C -4.2 °F /  -20.1 °C 1022.2 in /  34611.7 hPa Calm     83 % 0.0 in /  0 mm 0.00 W/m2 CLR
05:19 -1.7 °F /  -18.7 °C -4.0 °F /  -20 °C 1022.3 in /  34615.1 hPa WSW 8.0 mph /  12.9 km/h 5.0 mph /  8 km/h 84 % 0.0 in /  0 mm 0.00 W/m2 CLR
05:24 -1.7 °F /  -18.7 °C -4.0 °F /  -20 °C 1022.2 in /  34611.7 hPa WSW 11.3 mph /  18.2 km/h 8.2 mph /  13.2 km/h 84 % 0.0 in /  0 mm 0.00 W/m2 CLR
05:29 -1.7 °F /  -18.7 °C -4.0 °F /  -20 °C 1022.2 in /  34611.7 hPa WSW 14.8 mph /  23.8 km/h 10.1 mph /  16.3 km/h 84 % 0.0 in /  0 mm 0.00 W/m2 CLR
05:34 -1.7 °F /  -18.7 °C -4.0 °F /  -20 °C 1022.2 in /  34611.7 hPa WSW 9.3 mph /  15 km/h 6.1 mph /  9.8 km/h 84 % 0.0 in /  0 mm 0.00 W/m2 CLR
05:39 -1.1 °F /  -18.4 °C -3.4 °F /  -19.7 °C 1022.1 in /  34608.3 hPa WSW 11.1 mph /  17.9 km/h 6.8 mph /  10.9 km/h 84 % 0.0 in /  0 mm 0.00 W/m2 CLR
05:44 -1.1 °F /  -18.4 °C -3.4 °F /  -19.7 °C 1022.0 in /  34604.9 hPa WSW 7.4 mph /  11.9 km/h 2.3 mph /  3.7 km/h 84 % 0.0 in /  0 mm 0.00 W/m2 CLR
05:49 -1.1 °F /  -18.4 °C -3.4 °F /  -19.7 °C 1021.9 in /  34601.5 hPa WSW 7.4 mph /  11.9 km/h 6.1 mph /  9.8 km/h 84 % 0.0 in /  0 mm 0.00 W/m2 CLR
05:54 -1.1 °F /  -18.4 °C -3.6 °F /  -19.8 °C 1021.9 in /  34601.5 hPa WSW 7.4 mph /  11.9 km/h 7.2 mph /  11.6 km/h 83 % 0.0 in /  0 mm 0.00 W/m2 CLR
05:59 -1.1 °F /  -18.4 °C -3.6 °F /  -19.8 °C 1021.9 in /  34601.5 hPa WSW 13.0 mph /  20.9 km/h 9.8 mph /  15.8 km/h 83 % 0.0 in /  0 mm 0.00 W/m2 CLR
06:04 -1.1 °F /  -18.4 °C -3.4 °F /  -19.7 °C 1021.8 in /  34598.1 hPa West 9.3 mph /  15 km/h 6.8 mph /  10.9 km/h 84 % 0.0 in /  0 mm 0.00 W/m2 CLR
06:09 -1.7 °F /  -18.7 °C -4.2 °F /  -20.1 °C 1021.8 in /  34598.1 hPa WSW 11.1 mph /  17.9 km/h 7.4 mph /  11.9 km/h 83 % 0.0 in /  0 mm 0.00 W/m2 CLR
06:14 -1.7 °F /  -18.7 °C -4.2 °F /  -20.1 °C 1021.8 in /  34598.1 hPa WSW 7.4 mph /  11.9 km/h 6.3 mph /  10.1 km/h 83 % 0.0 in /  0 mm 0.00 W/m2 CLR
06:19 -1.7 °F /  -18.7 °C -4.2 °F /  -20.1 °C 1021.8 in /  34598.1 hPa West 9.7 mph /  15.6 km/h 7.6 mph /  12.2 km/h 83 % 0.0 in /  0 mm 0.00 W/m2 CLR
06:24 -1.7 °F /  -18.7 °C -4.2 °F /  -20.1 °C 1021.8 in /  34598.1 hPa West 13.0 mph /  20.9 km/h 7.4 mph /  11.9 km/h 83 % 0.0 in /  0 mm 0.00 W/m2 CLR
06:29 -1.7 °F /  -18.7 °C -4.0 °F /  -20 °C 1021.8 in /  34598.1 hPa West 9.3 mph /  15 km/h 9.0 mph /  14.5 km/h 84 % 0.0 in /  0 mm 0.00 W/m2 CLR
06:34 -1.7 °F /  -18.7 °C -4.0 °F /  -20 °C 1021.8 in /  34598.1 hPa WNW 9.3 mph /  15 km/h 6.6 mph /  10.6 km/h 84 % 0.0 in /  0 mm 0.00 W/m2 CLR
06:39 -1.7 °F /  -18.7 °C -4.0 °F /  -20 °C 1021.8 in /  34598.1 hPa NW 12.9 mph /  20.8 km/h 9.5 mph /  15.3 km/h 84 % 0.0 in /  0 mm 0.00 W/m2 CLR
06:44 -1.7 °F /  -18.7 °C -4.2 °F /  -20.1 °C 1021.8 in /  34598.1 hPa WNW 16.7 mph /  26.9 km/h 13.7 mph /  22 km/h 83 % 0.0 in /  0 mm 0.00 W/m2 CLR
06:49 -1.7 °F /  -18.7 °C -4.3 °F /  -20.2 °C 1021.8 in /  34598.1 hPa WNW 18.5 mph /  29.8 km/h 13.7 mph /  22 km/h 82 % 0.0 in /  0 mm 0.00 W/m2 CLR
06:54 -1.7 °F /  -18.7 °C -4.7 °F /  -20.4 °C 1021.9 in /  34601.5 hPa NW 18.5 mph /  29.8 km/h 14.5 mph /  23.3 km/h 80 % 0.0 in /  0 mm 0.00 W/m2 CLR
06:59 -1.7 °F /  -18.7 °C -4.8 °F /  -20.4 °C 1022.0 in /  34604.9 hPa WNW 18.5 mph /  29.8 km/h 13.7 mph /  22 km/h 79 % 0.0 in /  0 mm 0.00 W/m2 CLR
07:04 -1.7 °F /  -18.7 °C -5.0 °F /  -20.6 °C 1022.0 in /  34604.9 hPa NW 19.3 mph /  31.1 km/h 16.7 mph /  26.9 km/h 78 % 0.0 in /  0 mm 0.00 W/m2 CLR
07:09 -1.7 °F /  -18.7 °C -5.0 °F /  -20.6 °C 1022.1 in /  34608.3 hPa WNW 18.5 mph /  29.8 km/h 15.4 mph /  24.8 km/h 78 % 0.0 in /  0 mm 0.00 W/m2 CLR
07:14 -1.7 °F /  -18.7 °C -5.0 °F /  -20.6 °C 1022.1 in /  34608.3 hPa NW 20.4 mph /  32.8 km/h 15.4 mph /  24.8 km/h 78 % 0.0 in /  0 mm 0.00 W/m2 CLR
07:19 -1.1 °F /  -18.4 °C -4.6 °F /  -20.3 °C 1022.2 in /  34611.7 hPa NW 18.5 mph /  29.8 km/h 15.9 mph /  25.6 km/h 77 % 0.0 in /  0 mm 0.00 W/m2 CLR
07:24 -1.1 °F /  -18.4 °C -4.6 °F /  -20.3 °C 1022.1 in /  34608.3 hPa NW 20.4 mph /  32.8 km/h 17.2 mph /  27.7 km/h 77 % 0.0 in /  0 mm 0.00 W/m2 CLR
07:29 -0.6 °F /  -18.1 °C -4.1 °F /  -20.1 °C 1022.1 in /  34608.3 hPa NW 18.5 mph /  29.8 km/h 15.6 mph /  25.1 km/h 77 % 0.0 in /  0 mm 0.00 W/m2 CLR
07:34 0.0 °F /  -17.8 °C -3.4 °F /  -19.7 °C 1022.1 in /  34608.3 hPa NW 18.5 mph /  29.8 km/h 13.4 mph /  21.6 km/h 78 % 0.0 in /  0 mm 0.00 W/m2 CLR
07:39 0.6 °F /  -17.4 °C -2.8 °F /  -19.3 °C 1022.1 in /  34608.3 hPa NW 18.5 mph /  29.8 km/h 16.3 mph /  26.2 km/h 78 % 0.0 in /  0 mm 0.00 W/m2 CLR
07:44 0.6 °F /  -17.4 °C -2.8 °F /  -19.3 °C 1022.2 in /  34611.7 hPa NW 16.7 mph /  26.9 km/h 15.1 mph /  24.3 km/h 78 % 0.0 in /  0 mm 0.00 W/m2 CLR
07:49 0.6 °F /  -17.4 °C -3.0 °F /  -19.4 °C 1022.2 in /  34611.7 hPa WNW 14.8 mph /  23.8 km/h 12.1 mph /  19.5 km/h 77 % 0.0 in /  0 mm 0.00 W/m2 CLR
07:54 0.0 °F /  -17.8 °C -3.4 °F /  -19.7 °C 1022.2 in /  34611.7 hPa WNW 18.5 mph /  29.8 km/h 14.0 mph /  22.5 km/h 78 % 0.0 in /  0 mm 0.00 W/m2 CLR
07:59 0.0 °F /  -17.8 °C -3.4 °F /  -19.7 °C 1022.2 in /  34611.7 hPa WNW 16.7 mph /  26.9 km/h 12.6 mph /  20.3 km/h 78 % 0.0 in /  0 mm 0.00 W/m2 CLR
08:04 -0.6 °F /  -18.1 °C -3.9 °F /  -19.9 °C 1022.2 in /  34611.7 hPa WNW 18.5 mph /  29.8 km/h 13.2 mph /  21.2 km/h 78 % 0.0 in /  0 mm 0.00 W/m2 CLR
08:09 -0.6 °F /  -18.1 °C -3.9 °F /  -19.9 °C 1022.2 in /  34611.7 hPa WNW 16.1 mph /  25.9 km/h 13.2 mph /  21.2 km/h 78 % 0.0 in /  0 mm 0.00 W/m2 CLR
08:14 -0.6 °F /  -18.1 °C -3.9 °F /  -19.9 °C 1022.2 in /  34611.7 hPa WNW 18.5 mph /  29.8 km/h 14.0 mph /  22.5 km/h 78 % 0.0 in /  0 mm 0.00 W/m2 OVC
08:19 -0.6 °F /  -18.1 °C -3.9 °F /  -19.9 °C 1022.3 in /  34615.1 hPa WNW 18.5 mph /  29.8 km/h 11.9 mph /  19.2 km/h 78 % 0.0 in /  0 mm 5.00 W/m2 OVC
08:24 -0.6 °F /  -18.1 °C -4.1 °F /  -20.1 °C 1022.3 in /  34615.1 hPa West 11.1 mph /  17.9 km/h 6.4 mph /  10.3 km/h 77 % 0.0 in /  0 mm 7.00 W/m2 OVC
08:29 -0.6 °F /  -18.1 °C -3.8 °F /  -19.9 °C 1022.3 in /  34615.1 hPa West 11.3 mph /  18.2 km/h 7.7 mph /  12.4 km/h 79 % 0.0 in /  0 mm 11.00 W/m2 OVC
08:34 -1.1 °F /  -18.4 °C -4.1 °F /  -20.1 °C 1022.3 in /  34615.1 hPa West 9.3 mph /  15 km/h 5.6 mph /  9 km/h 80 % 0.0 in /  0 mm 14.00 W/m2 OVC
08:39 -1.1 °F /  -18.4 °C -3.9 °F /  -19.9 °C 1022.3 in /  34615.1 hPa West 16.7 mph /  26.9 km/h 8.7 mph /  14 km/h 81 % 0.0 in /  0 mm 18.00 W/m2 OVC
08:44 -1.1 °F /  -18.4 °C -3.8 °F /  -19.9 °C 1022.3 in /  34615.1 hPa West 9.3 mph /  15 km/h 7.2 mph /  11.6 km/h 82 % 0.0 in /  0 mm 19.00 W/m2 OVC
08:49 -1.1 °F /  -18.4 °C -3.8 °F /  -19.9 °C 1022.4 in /  34618.5 hPa West 11.1 mph /  17.9 km/h 8.8 mph /  14.2 km/h 82 % 0.0 in /  0 mm 21.00 W/m2 OVC
08:54 -1.1 °F /  -18.4 °C -3.8 °F /  -19.9 °C 1022.3 in /  34615.1 hPa West 11.1 mph /  17.9 km/h 7.1 mph /  11.4 km/h 82 % 0.0 in /  0 mm 28.00 W/m2 OVC
08:59 -1.1 °F /  -18.4 °C -3.8 °F /  -19.9 °C 1022.4 in /  34618.5 hPa West 11.1 mph /  17.9 km/h 8.4 mph /  13.5 km/h 82 % 0.0 in /  0 mm 33.00 W/m2 OVC
09:04 -1.1 °F /  -18.4 °C -3.8 °F /  -19.9 °C 1022.4 in /  34618.5 hPa West 14.8 mph /  23.8 km/h 11.3 mph /  18.2 km/h 82 % 0.0 in /  0 mm 53.00 W/m2 OVC
09:07 -1.1 °F /  -18.4 °C -3.8 °F /  -19.9 °C 1022.4 in /  34618.5 hPa West 16.1 mph /  25.9 km/h 10.3 mph /  16.6 km/h 82 % 0.0 in /  0 mm 62.00 W/m2 OVC
09:14 -1.1 °F /  -18.4 °C -3.8 °F /  -19.9 °C 1022.4 in /  34618.5 hPa WSW 11.1 mph /  17.9 km/h 7.4 mph /  11.9 km/h 82 % 0.0 in /  0 mm 81.00 W/m2 OVC
09:19 -1.1 °F /  -18.4 °C -3.9 °F /  -19.9 °C 1022.4 in /  34618.5 hPa WSW 14.8 mph /  23.8 km/h 10.9 mph /  17.5 km/h 81 % 0.0 in /  0 mm 102.00 W/m2 OVC
09:24 0.0 °F /  -17.8 °C -2.9 °F /  -19.4 °C 1022.5 in /  34621.9 hPa West 13.0 mph /  20.9 km/h 9.3 mph /  15 km/h 81 % 0.0 in /  0 mm 105.00 W/m2 BKN
09:29 0.6 °F /  -17.4 °C -2.5 °F /  -19.2 °C 1022.5 in /  34621.9 hPa West 11.1 mph /  17.9 km/h 9.0 mph /  14.5 km/h 80 % 0.0 in /  0 mm 151.00 W/m2 SCT
09:34 1.1 °F /  -17.2 °C -1.9 °F /  -18.8 °C 1022.5 in /  34621.9 hPa WSW 13.0 mph /  20.9 km/h 6.4 mph /  10.3 km/h 80 % 0.0 in /  0 mm 190.00 W/m2 CLR
09:39 1.7 °F /  -16.8 °C -1.6 °F /  -18.7 °C 1022.5 in /  34621.9 hPa WSW 11.3 mph /  18.2 km/h 8.4 mph /  13.5 km/h 79 % 0.0 in /  0 mm 218.00 W/m2 CLR
09:44 2.2 °F /  -16.6 °C -1.2 °F /  -18.4 °C 1022.6 in /  34625.2 hPa WSW 7.4 mph /  11.9 km/h 1.4 mph /  2.3 km/h 78 % 0.0 in /  0 mm 230.00 W/m2 CLR
09:49 2.8 °F /  -16.2 °C -0.8 °F /  -18.2 °C 1022.6 in /  34625.2 hPa WSW 18.5 mph /  29.8 km/h 8.8 mph /  14.2 km/h 77 % 0.0 in /  0 mm 267.00 W/m2 CLR
09:54 4.4 °F /  -15.3 °C 0.6 °F /  -17.4 °C 1022.6 in /  34625.2 hPa WSW 13.0 mph /  20.9 km/h 4.8 mph /  7.7 km/h 76 % 0.0 in /  0 mm 207.00 W/m2 CLR
09:59 5.0 °F /  -15 °C 0.9 °F /  -17.3 °C 1022.5 in /  34621.9 hPa WNW 9.3 mph /  15 km/h 4.0 mph /  6.4 km/h 75 % 0.0 in /  0 mm 195.00 W/m2 CLR
10:04 5.6 °F /  -14.7 °C 1.1 °F /  -17.2 °C 1022.7 in /  34628.6 hPa WNW 22.2 mph /  35.7 km/h 10.9 mph /  17.5 km/h 73 % 0.0 in /  0 mm 172.00 W/m2 CLR
10:09 5.6 °F /  -14.7 °C 0.7 °F /  -17.4 °C 1022.8 in /  34632 hPa WNW 24.1 mph /  38.8 km/h 18.5 mph /  29.8 km/h 71 % 0.0 in /  0 mm 121.00 W/m2 CLR
10:14 5.6 °F /  -14.7 °C 0.7 °F /  -17.4 °C 1022.8 in /  34632 hPa WNW 18.5 mph /  29.8 km/h 13.8 mph /  22.2 km/h 71 % 0.0 in /  0 mm 116.00 W/m2 CLR
10:19 5.6 °F /  -14.7 °C 0.7 °F /  -17.4 °C 1022.8 in /  34632 hPa WNW 18.5 mph /  29.8 km/h 15.1 mph /  24.3 km/h 71 % 0.0 in /  0 mm 107.00 W/m2 CLR
10:24 5.6 °F /  -14.7 °C 0.9 °F /  -17.3 °C 1022.8 in /  34632 hPa WNW 16.1 mph /  25.9 km/h 11.1 mph /  17.9 km/h 72 % 0.0 in /  0 mm 113.00 W/m2 CLR
10:29 5.6 °F /  -14.7 °C 1.1 °F /  -17.2 °C 1022.8 in /  34632 hPa WNW 16.7 mph /  26.9 km/h 15.3 mph /  24.6 km/h 73 % 0.0 in /  0 mm 149.00 W/m2 CLR
10:34 5.6 °F /  -14.7 °C 1.1 °F /  -17.2 °C 1022.8 in /  34632 hPa WNW 19.3 mph /  31.1 km/h 16.4 mph /  26.4 km/h 73 % 0.0 in /  0 mm 148.00 W/m2 CLR
10:39 6.1 °F /  -14.4 °C 1.6 °F /  -16.9 °C 1022.7 in /  34628.6 hPa WNW 14.8 mph /  23.8 km/h 11.4 mph /  18.3 km/h 73 % 0.0 in /  0 mm 213.00 W/m2 CLR
10:44 6.1 °F /  -14.4 °C 1.6 °F /  -16.9 °C 1022.7 in /  34628.6 hPa NW 14.8 mph /  23.8 km/h 11.1 mph /  17.9 km/h 73 % 0.0 in /  0 mm 315.00 W/m2 CLR
10:49 6.1 °F /  -14.4 °C 1.6 °F /  -16.9 °C 1022.7 in /  34628.6 hPa NW 13.0 mph /  20.9 km/h 11.1 mph /  17.9 km/h 73 % 0.0 in /  0 mm 404.00 W/m2 CLR
10:54 6.7 °F /  -14.1 °C 1.8 °F /  -16.8 °C 1022.7 in /  34628.6 hPa WNW 14.8 mph /  23.8 km/h 11.7 mph /  18.8 km/h 71 % 0.0 in /  0 mm 388.00 W/m2 CLR
10:59 7.2 °F /  -13.8 °C 2.1 °F /  -16.6 °C 1022.9 in /  34635.4 hPa WNW 18.5 mph /  29.8 km/h 15.3 mph /  24.6 km/h 70 % 0.0 in /  0 mm 473.00 W/m2 CLR
11:04 7.2 °F /  -13.8 °C 2.1 °F /  -16.6 °C 1022.6 in /  34625.2 hPa WNW 25.9 mph /  41.7 km/h 16.4 mph /  26.4 km/h 70 % 0.0 in /  0 mm 366.00 W/m2 CLR
11:09 7.2 °F /  -13.8 °C 1.9 °F /  -16.7 °C 1022.7 in /  34628.6 hPa NW 18.5 mph /  29.8 km/h 11.6 mph /  18.7 km/h 69 % 0.0 in /  0 mm 315.00 W/m2 CLR
11:14 7.8 °F /  -13.4 °C 2.2 °F /  -16.6 °C 1022.7 in /  34628.6 hPa NW 16.7 mph /  26.9 km/h 13.2 mph /  21.2 km/h 68 % 0.0 in /  0 mm 285.00 W/m2 CLR
11:19 7.8 °F /  -13.4 °C 2.1 °F /  -16.6 °C 1022.7 in /  34628.6 hPa West 20.4 mph /  32.8 km/h 18.2 mph /  29.3 km/h 67 % 0.0 in /  0 mm 360.00 W/m2 CLR
11:24 7.8 °F /  -13.4 °C 2.1 °F /  -16.6 °C 1022.7 in /  34628.6 hPa NW 24.1 mph /  38.8 km/h 16.7 mph /  26.9 km/h 67 % 0.0 in /  0 mm 248.00 W/m2 CLR
11:29 7.8 °F /  -13.4 °C 2.4 °F /  -16.4 °C 1022.9 in /  34635.4 hPa WNW 20.4 mph /  32.8 km/h 16.1 mph /  25.9 km/h 69 % 0.0 in /  0 mm 204.00 W/m2 CLR
11:34 7.8 °F /  -13.4 °C 2.1 °F /  -16.6 °C 1022.8 in /  34632 hPa WNW 18.5 mph /  29.8 km/h 15.4 mph /  24.8 km/h 67 % 0.0 in /  0 mm 221.00 W/m2 CLR
11:39 7.8 °F /  -13.4 °C 2.4 °F /  -16.4 °C 1022.8 in /  34632 hPa NNW 20.4 mph /  32.8 km/h 16.9 mph /  27.2 km/h 69 % 0.0 in /  0 mm 255.00 W/m2 CLR
11:44 7.8 °F /  -13.4 °C 2.7 °F /  -16.3 °C 1022.8 in /  34632 hPa NW 22.2 mph /  35.7 km/h 13.7 mph /  22 km/h 70 % 0.0 in /  0 mm 311.00 W/m2 CLR
11:49 7.8 °F /  -13.4 °C 2.1 °F /  -16.6 °C 1022.8 in /  34632 hPa WNW 20.4 mph /  32.8 km/h 16.7 mph /  26.9 km/h 67 % 0.0 in /  0 mm 325.00 W/m2 CLR
11:54 8.3 °F /  -13.2 °C 3.2 °F /  -16 °C 1022.7 in /  34628.6 hPa NNW 22.5 mph /  36.2 km/h 18.5 mph /  29.8 km/h 70 % 0.0 in /  0 mm 318.00 W/m2 CLR
11:59 8.3 °F /  -13.2 °C 3.0 °F /  -16.1 °C 1022.6 in /  34625.2 hPa NNW 20.4 mph /  32.8 km/h 18.2 mph /  29.3 km/h 69 % 0.0 in /  0 mm 339.00 W/m2 CLR
12:04 8.3 °F /  -13.2 °C 2.6 °F /  -16.3 °C 1022.5 in /  34621.9 hPa NW 18.5 mph /  29.8 km/h 14.0 mph /  22.5 km/h 67 % 0.0 in /  0 mm 346.00 W/m2 CLR
12:09 8.3 °F /  -13.2 °C 3.0 °F /  -16.1 °C 1022.5 in /  34621.9 hPa NW 20.9 mph /  33.6 km/h 17.4 mph /  28 km/h 69 % 0.0 in /  0 mm 406.00 W/m2 CLR
12:14 8.3 °F /  -13.2 °C 2.8 °F /  -16.2 °C 1022.5 in /  34621.9 hPa NW 20.4 mph /  32.8 km/h 15.9 mph /  25.6 km/h 68 % 0.0 in /  0 mm 294.00 W/m2 CLR
12:19 8.3 °F /  -13.2 °C 2.6 °F /  -16.3 °C 1022.5 in /  34621.9 hPa NW 16.7 mph /  26.9 km/h 14.8 mph /  23.8 km/h 67 % 0.0 in /  0 mm 274.00 W/m2 CLR
12:24 8.3 °F /  -13.2 °C 2.3 °F /  -16.5 °C 1022.5 in /  34621.9 hPa NW 20.4 mph /  32.8 km/h 17.2 mph /  27.7 km/h 66 % 0.0 in /  0 mm 230.00 W/m2 CLR
12:29 8.3 °F /  -13.2 °C 2.8 °F /  -16.2 °C 1022.5 in /  34621.9 hPa NNW 19.3 mph /  31.1 km/h 17.4 mph /  28 km/h 68 % 0.0 in /  0 mm 211.00 W/m2 CLR
12:34 7.8 °F /  -13.4 °C 2.2 °F /  -16.6 °C 1022.4 in /  34618.5 hPa NW 18.5 mph /  29.8 km/h 14.2 mph /  22.9 km/h 68 % 0.0 in /  0 mm 262.00 W/m2 CLR
Lo Temps de Massalio
Compliments of Weather Underground - 768 kb